createdAt,value
2018-07-03T00:00:10.974Z,1.13
2018-07-03T00:05:14.885Z,1.73
2018-07-03T00:10:18.425Z,1.10
2018-07-03T00:15:22.000Z,0.80
2018-07-03T00:20:25.545Z,0.60
2018-07-03T00:25:29.170Z,1.03
2018-07-03T00:30:35.277Z,1.07
2018-07-03T00:35:38.884Z,1.57
2018-07-03T00:40:42.381Z,1.03
2018-07-03T00:45:46.926Z,1.30
2018-07-03T00:50:50.929Z,1.13
2018-07-03T00:55:54.577Z,1.37
2018-07-03T01:00:58.658Z,1.53
2018-07-03T01:06:02.220Z,1.20
2018-07-03T01:11:05.762Z,1.20
2018-07-03T01:16:09.307Z,1.23
2018-07-03T01:21:12.927Z,1.10
2018-07-03T01:26:17.499Z,1.40
2018-07-03T01:31:20.997Z,1.10
2018-07-03T01:36:24.669Z,1.37
2018-07-03T01:41:28.311Z,1.67
2018-07-03T01:46:31.972Z,1.20
2018-07-03T01:51:35.527Z,1.10
2018-07-03T01:56:39.082Z,1.37
2018-07-03T02:01:43.008Z,1.50
2018-07-03T02:06:46.484Z,1.10
2018-07-03T02:11:50.265Z,1.37
2018-07-03T02:16:53.770Z,1.13
2018-07-03T02:21:58.369Z,1.80
2018-07-03T02:27:02.728Z,1.00
2018-07-03T02:32:06.339Z,1.70
2018-07-03T02:37:10.026Z,1.07
2018-07-03T02:42:13.636Z,1.20
2018-07-03T02:47:17.195Z,1.43
2018-07-03T02:52:20.803Z,1.77
2018-07-03T02:57:24.644Z,1.77
2018-07-03T03:02:29.296Z,1.87
2018-07-03T03:07:32.833Z,1.63
2018-07-03T03:12:36.434Z,1.60
2018-07-03T03:17:40.006Z,1.70
2018-07-03T03:22:43.494Z,1.30
2018-07-03T03:27:47.147Z,1.47
2018-07-03T03:32:50.968Z,1.87
2018-07-03T03:37:55.441Z,1.90
2018-07-03T03:42:58.950Z,2.10
2018-07-03T03:48:02.495Z,1.60
2018-07-03T03:53:06.041Z,2.07
2018-07-03T03:58:09.726Z,2.47
2018-07-03T04:03:13.319Z,2.40
2018-07-03T04:08:16.956Z,2.10
2018-07-03T04:13:20.944Z,1.93
2018-07-03T04:18:31.984Z,2.17
2018-07-03T04:23:36.697Z,2.00
2018-07-03T04:28:40.666Z,1.93
2018-07-03T04:33:44.255Z,2.13
2018-07-03T04:38:47.911Z,2.77
2018-07-03T04:43:51.957Z,3.10
2018-07-03T04:48:55.564Z,3.67
2018-07-03T04:53:59.281Z,4.17
2018-07-03T04:59:02.844Z,3.37
2018-07-03T05:04:06.403Z,2.93
2018-07-03T05:09:11.216Z,3.33
2018-07-03T05:14:15.524Z,3.43
2018-07-03T05:19:19.260Z,3.07
2018-07-03T05:24:22.948Z,3.20
2018-07-03T05:29:26.679Z,3.37
2018-07-03T05:34:30.308Z,3.03
2018-07-03T05:39:34.580Z,2.93
2018-07-03T05:44:38.224Z,2.57
2018-07-03T05:49:42.747Z,2.63
2018-07-03T05:54:46.312Z,3.23
2018-07-03T05:59:49.858Z,2.63
2018-07-03T06:04:53.421Z,2.63
2018-07-03T06:09:57.732Z,2.33
2018-07-03T06:15:01.335Z,2.70
2018-07-03T06:20:04.929Z,2.83
2018-07-03T06:25:08.463Z,2.50
2018-07-03T06:30:14.756Z,2.60
2018-07-03T06:35:18.358Z,2.03
2018-07-03T06:40:22.146Z,2.37
2018-07-03T06:45:26.071Z,2.20
2018-07-03T06:50:29.603Z,1.90
2018-07-03T06:55:34.885Z,1.70
2018-07-03T07:00:38.508Z,1.97
2018-07-03T07:05:42.066Z,1.90
2018-07-03T07:10:45.921Z,1.80
2018-07-03T07:15:50.009Z,1.47
2018-07-03T07:20:53.862Z,1.83
2018-07-03T07:25:57.463Z,1.43
2018-07-03T07:31:01.092Z,1.43
2018-07-03T07:36:05.063Z,1.80
2018-07-03T07:41:08.774Z,2.07
2018-07-03T07:46:12.929Z,1.20
2018-07-03T07:51:16.940Z,0.90
2018-07-03T07:56:20.428Z,1.30
2018-07-03T08:01:24.117Z,1.97
2018-07-03T08:06:27.645Z,1.10
2018-07-03T08:11:31.196Z,0.97
2018-07-03T08:16:34.734Z,1.23
2018-07-03T08:21:38.275Z,1.17
2018-07-03T08:26:41.811Z,1.37
2018-07-03T08:31:45.334Z,0.80
2018-07-03T08:36:49.642Z,1.53
2018-07-03T08:41:53.410Z,0.90
2018-07-03T08:46:57.048Z,1.13
2018-07-03T08:52:01.112Z,0.90
2018-07-03T08:57:04.703Z,0.90
2018-07-03T09:02:08.311Z,1.00
2018-07-03T09:07:11.941Z,0.70
2018-07-03T09:12:15.992Z,1.27
2018-07-03T09:17:24.837Z,1.10
2018-07-03T09:22:28.423Z,1.17
2018-07-03T09:27:32.945Z,1.47
2018-07-03T09:32:36.480Z,1.10
2018-07-03T09:37:40.045Z,1.10
2018-07-03T09:42:43.591Z,0.83
2018-07-03T09:47:47.919Z,1.33
2018-07-03T09:52:51.445Z,0.97
2018-07-03T09:57:55.329Z,1.30
2018-07-03T10:02:58.881Z,1.07
2018-07-03T10:08:02.367Z,1.00
2018-07-03T10:13:07.862Z,1.03
2018-07-03T10:18:11.363Z,1.50
2018-07-03T10:23:15.060Z,1.13
2018-07-03T10:28:18.523Z,1.00
2018-07-03T10:33:23.062Z,1.10
2018-07-03T10:38:26.534Z,1.20
2018-07-03T10:43:30.362Z,1.37
2018-07-03T10:48:33.962Z,1.10
2018-07-03T10:53:37.722Z,0.90
2018-07-03T10:58:41.294Z,1.83
2018-07-03T11:03:44.828Z,1.67
2018-07-03T11:08:48.283Z,1.27
2018-07-03T11:13:51.815Z,0.70
2018-07-03T11:18:55.277Z,0.83
2018-07-03T11:23:59.171Z,0.90
2018-07-03T11:29:02.773Z,0.77
2018-07-03T11:34:07.173Z,1.00
2018-07-03T11:39:10.817Z,1.20
2018-07-03T11:44:14.649Z,1.27
2018-07-03T11:49:18.154Z,1.00
2018-07-03T11:54:23.091Z,0.90
2018-07-03T11:59:26.726Z,1.10
2018-07-03T12:04:30.479Z,1.07
2018-07-03T12:09:34.808Z,1.10
2018-07-03T12:14:38.536Z,1.30
2018-07-03T12:19:44.700Z,1.60
2018-07-03T12:24:48.469Z,1.03
2018-07-03T12:29:52.148Z,1.37
2018-07-03T12:34:56.593Z,1.10
2018-07-03T12:40:00.588Z,1.10
2018-07-03T12:45:04.805Z,1.17
2018-07-03T12:50:08.396Z,1.17
2018-07-03T12:55:12.109Z,1.20
2018-07-03T13:00:21.853Z,1.00
2018-07-03T13:05:25.584Z,1.20
2018-07-03T13:10:29.319Z,0.87
2018-07-03T13:15:32.892Z,0.97
2018-07-03T13:20:37.365Z,1.20
2018-07-03T13:25:40.916Z,1.00
2018-07-03T13:30:44.440Z,1.43
2018-07-03T13:35:48.004Z,1.20
2018-07-03T13:40:52.097Z,0.90
2018-07-03T13:45:55.745Z,1.33
2018-07-03T13:50:59.201Z,1.23
2018-07-03T13:56:03.081Z,1.20
2018-07-03T14:01:06.890Z,1.57
2018-07-03T14:06:10.646Z,1.37
2018-07-03T14:11:14.174Z,0.80
2018-07-03T14:16:17.748Z,0.90
2018-07-03T14:21:21.265Z,0.90
2018-07-03T14:26:24.796Z,1.00
2018-07-03T14:31:28.446Z,1.17
2018-07-03T14:36:32.983Z,1.13
2018-07-03T14:41:36.484Z,1.00
2018-07-03T14:46:40.122Z,1.00
2018-07-03T14:51:43.666Z,0.83
2018-07-03T14:56:47.209Z,1.67
2018-07-03T15:01:50.741Z,1.10
2018-07-03T15:06:54.389Z,1.00
2018-07-03T15:11:58.042Z,0.93
2018-07-03T15:17:01.659Z,0.97
2018-07-03T15:22:05.297Z,1.40
2018-07-03T15:27:08.963Z,1.20
2018-07-03T15:32:12.502Z,1.20
2018-07-03T15:37:16.024Z,1.20
2018-07-03T15:42:19.772Z,1.30
2018-07-03T15:47:23.301Z,1.40
2018-07-03T15:52:26.918Z,1.07
2018-07-03T15:57:30.503Z,1.10
2018-07-03T16:02:34.196Z,1.03
2018-07-03T16:07:49.377Z,1.33
2018-07-03T16:12:52.904Z,1.90
2018-07-03T16:17:56.641Z,1.20
2018-07-03T16:23:00.207Z,1.40
2018-07-03T16:28:03.899Z,1.20
2018-07-03T16:33:07.400Z,4.10
2018-07-03T16:38:10.973Z,1.73
2018-07-03T16:43:14.435Z,1.50
2018-07-03T16:48:19.153Z,1.40
2018-07-03T16:53:22.799Z,1.43
2018-07-03T16:58:27.364Z,1.10
2018-07-03T17:03:31.862Z,1.60
2018-07-03T17:08:36.601Z,1.50
2018-07-03T17:13:40.506Z,1.40
2018-07-03T17:18:49.315Z,1.53
2018-07-03T17:23:52.859Z,1.17
2018-07-03T17:28:56.437Z,1.57
2018-07-03T17:33:59.926Z,1.00
2018-07-03T17:39:10.589Z,1.20
2018-07-03T17:44:25.756Z,1.67
2018-07-03T17:49:29.311Z,1.10
2018-07-03T17:54:32.927Z,1.07
2018-07-03T17:59:36.453Z,1.43
2018-07-03T18:04:40.020Z,1.70
2018-07-03T18:09:43.610Z,1.93
2018-07-03T18:14:47.938Z,1.97
2018-07-03T18:19:51.537Z,2.03
2018-07-03T18:24:55.066Z,1.57
2018-07-03T18:29:58.807Z,1.70
2018-07-03T18:35:03.056Z,1.10
2018-07-03T18:40:06.906Z,1.97
2018-07-03T18:45:10.420Z,2.07
2018-07-03T18:50:14.141Z,1.40
2018-07-03T18:55:17.662Z,1.50
2018-07-03T19:00:25.652Z,1.40
2018-07-03T19:05:29.273Z,1.60
2018-07-03T19:10:32.860Z,1.53
2018-07-03T19:15:36.531Z,1.60
2018-07-03T19:20:41.119Z,1.43
2018-07-03T19:25:44.685Z,1.50
2018-07-03T19:30:48.206Z,1.20
2018-07-03T19:35:51.923Z,1.70
2018-07-03T19:40:56.386Z,1.57
2018-07-03T19:46:01.034Z,1.47
2018-07-03T19:51:04.855Z,1.50
2018-07-03T19:56:08.720Z,1.33
2018-07-03T20:01:12.474Z,1.90
2018-07-03T20:06:16.163Z,1.57
2018-07-03T20:11:20.207Z,1.60
2018-07-03T20:16:23.833Z,2.73
2018-07-03T20:21:27.329Z,2.50
2018-07-03T20:26:31.971Z,2.23
2018-07-03T20:31:35.514Z,3.20
2018-07-03T20:36:39.064Z,3.73
2018-07-03T20:41:42.536Z,4.27
2018-07-03T20:46:46.117Z,2.80
2018-07-03T20:51:49.684Z,3.07
2018-07-03T20:56:53.645Z,4.07
2018-07-03T21:01:57.166Z,3.70
2018-07-03T21:07:01.309Z,5.03
2018-07-03T21:12:05.891Z,4.73
2018-07-03T21:17:10.467Z,4.40
2018-07-03T21:22:14.385Z,4.00
2018-07-03T21:27:18.044Z,4.17
2018-07-03T21:32:21.654Z,4.17
2018-07-03T21:37:26.069Z,3.73
2018-07-03T21:42:29.773Z,3.87
2018-07-03T21:47:33.650Z,4.07
2018-07-03T21:52:37.119Z,4.20
2018-07-03T21:57:40.816Z,3.80
2018-07-03T22:02:44.369Z,5.33
2018-07-03T22:07:47.890Z,6.23
2018-07-03T22:12:51.473Z,5.90
2018-07-03T22:17:55.110Z,6.07
2018-07-03T22:22:58.590Z,5.27
2018-07-03T22:28:02.640Z,4.60
2018-07-03T22:33:06.323Z,5.90
2018-07-03T22:38:09.856Z,5.00
2018-07-03T22:43:13.641Z,4.70
2018-07-03T22:48:18.083Z,5.43
2018-07-03T22:53:21.605Z,5.70
2018-07-03T22:58:25.195Z,6.30
2018-07-03T23:03:29.184Z,6.70
2018-07-03T23:08:33.037Z,6.97
2018-07-03T23:13:36.539Z,5.80
2018-07-03T23:18:40.284Z,4.83
2018-07-03T23:23:43.790Z,4.70
2018-07-03T23:28:47.527Z,5.17
2018-07-03T23:33:51.029Z,4.67
2018-07-03T23:38:55.576Z,5.80
2018-07-03T23:43:59.206Z,5.87
2018-07-03T23:49:14.138Z,4.73
2018-07-03T23:54:28.874Z,5.13
2018-07-03T23:59:43.790Z,5.40
